sensor_id;sensor_type;location;lat;lon;timestamp;P1;durP1;ratioP1;P2;durP2;ratioP2
2494;SDS011;1258;48.336;14.322;2024-01-10T00:01:16;9.00;;;8.20;;
2494;SDS011;1258;48.336;14.322;2024-01-10T00:03:43;8.93;;;8.03;;
2494;SDS011;1258;48.336;14.322;2024-01-10T00:06:10;9.23;;;8.33;;
2494;SDS011;1258;48.336;14.322;2024-01-10T00:08:38;9.83;;;8.83;;
2494;SDS011;1258;48.336;14.322;2024-01-10T00:11:05;9.33;;;8.30;;
2494;SDS011;1258;48.336;14.322;2024-01-10T00:13:32;10.00;;;8.23;;
2494;SDS011;1258;48.336;14.322;2024-01-10T00:15:59;8.60;;;7.70;;
2494;SDS011;1258;48.336;14.322;2024-01-10T00:18:26;8.33;;;7.53;;
2494;SDS011;1258;48.336;14.322;2024-01-10T00:20:53;8.37;;;7.57;;
2494;SDS011;1258;48.336;14.322;2024-01-10T00:23:20;8.03;;;7.33;;
2494;SDS011;1258;48.336;14.322;2024-01-10T00:25:51;10.23;;;8.30;;
2494;SDS011;1258;48.336;14.322;2024-01-10T00:28:18;9.57;;;8.43;;
2494;SDS011;1258;48.336;14.322;2024-01-10T00:30:45;9.13;;;8.00;;
2494;SDS011;1258;48.336;14.322;2024-01-10T00:33:13;10.20;;;8.10;;
2494;SDS011;1258;48.336;14.322;2024-01-10T00:35:40;10.70;;;8.87;;
2494;SDS011;1258;48.336;14.322;2024-01-10T00:38:07;9.97;;;8.97;;
2494;SDS011;1258;48.336;14.322;2024-01-10T00:40:33;9.13;;;8.23;;
2494;SDS011;1258;48.336;14.322;2024-01-10T00:43:02;9.83;;;8.97;;
2494;SDS011;1258;48.336;14.322;2024-01-10T00:45:29;9.37;;;8.47;;
2494;SDS011;1258;48.336;14.322;2024-01-10T00:47:56;9.27;;;8.47;;
2494;SDS011;1258;48.336;14.322;2024-01-10T00:50:23;10.37;;;9.13;;
2494;SDS011;1258;48.336;14.322;2024-01-10T00:52:50;11.07;;;8.30;;
2494;SDS011;1258;48.336;14.322;2024-01-10T00:55:17;8.67;;;7.87;;
2494;SDS011;1258;48.336;14.322;2024-01-10T00:57:44;9.43;;;8.50;;
2494;SDS011;1258;48.336;14.322;2024-01-10T01:00:13;10.60;;;8.73;;
2494;SDS011;1258;48.336;14.322;2024-01-10T01:02:40;9.33;;;8.43;;
2494;SDS011;1258;48.336;14.322;2024-01-10T01:05:08;9.70;;;8.70;;
2494;SDS011;1258;48.336;14.322;2024-01-10T01:07:35;9.63;;;8.70;;
2494;SDS011;1258;48.336;14.322;2024-01-10T01:10:02;9.90;;;7.77;;
2494;SDS011;1258;48.336;14.322;2024-01-10T01:12:30;9.30;;;8.40;;
2494;SDS011;1258;48.336;14.322;2024-01-10T01:14:57;8.40;;;7.60;;
2494;SDS011;1258;48.336;14.322;2024-01-10T01:17:25;8.40;;;7.70;;
2494;SDS011;1258;48.336;14.322;2024-01-10T01:19:52;10.03;;;9.03;;
2494;SDS011;1258;48.336;14.322;2024-01-10T01:22:18;8.33;;;7.53;;
2494;SDS011;1258;48.336;14.322;2024-01-10T01:24:45;8.43;;;7.63;;
2494;SDS011;1258;48.336;14.322;2024-01-10T01:27:12;8.33;;;7.53;;
2494;SDS011;1258;48.336;14.322;2024-01-10T01:29:39;8.67;;;7.87;;
2494;SDS011;1258;48.336;14.322;2024-01-10T01:32:06;8.90;;;8.00;;
2494;SDS011;1258;48.336;14.322;2024-01-10T01:34:34;9.80;;;8.83;;
2494;SDS011;1258;48.336;14.322;2024-01-10T01:37:01;9.13;;;7.97;;
2494;SDS011;1258;48.336;14.322;2024-01-10T01:39:29;9.67;;;8.43;;
2494;SDS011;1258;48.336;14.322;2024-01-10T01:41:56;8.57;;;7.77;;
2494;SDS011;1258;48.336;14.322;2024-01-10T01:44:22;10.03;;;9.10;;
2494;SDS011;1258;48.336;14.322;2024-01-10T01:46:48;9.90;;;9.00;;
2494;SDS011;1258;48.336;14.322;2024-01-10T01:49:16;10.50;;;9.20;;
2494;SDS011;1258;48.336;14.322;2024-01-10T01:51:44;9.83;;;8.93;;
2494;SDS011;1258;48.336;14.322;2024-01-10T01:54:11;10.17;;;8.83;;
2494;SDS011;1258;48.336;14.322;2024-01-10T01:56:40;9.63;;;8.73;;
2494;SDS011;1258;48.336;14.322;2024-01-10T01:59:09;9.93;;;8.90;;
2494;SDS011;1258;48.336;14.322;2024-01-10T02:01:37;8.80;;;8.00;;
2494;SDS011;1258;48.336;14.322;2024-01-10T02:04:04;9.50;;;8.50;;
2494;SDS011;1258;48.336;14.322;2024-01-10T02:06:31;8.93;;;8.03;;
2494;SDS011;1258;48.336;14.322;2024-01-10T02:08:59;9.40;;;8.50;;
2494;SDS011;1258;48.336;14.322;2024-01-10T02:11:26;8.43;;;7.27;;
2494;SDS011;1258;48.336;14.322;2024-01-10T02:13:53;10.00;;;9.00;;
2494;SDS011;1258;48.336;14.322;2024-01-10T02:16:20;9.60;;;8.70;;
2494;SDS011;1258;48.336;14.322;2024-01-10T02:18:48;9.17;;;8.27;;
2494;SDS011;1258;48.336;14.322;2024-01-10T02:21:15;10.90;;;9.50;;
2494;SDS011;1258;48.336;14.322;2024-01-10T02:23:42;14.53;;;10.17;;
2494;SDS011;1258;48.336;14.322;2024-01-10T02:26:10;9.60;;;8.70;;
2494;SDS011;1258;48.336;14.322;2024-01-10T02:28:37;8.97;;;8.03;;
2494;SDS011;1258;48.336;14.322;2024-01-10T02:31:04;9.60;;;8.60;;
2494;SDS011;1258;48.336;14.322;2024-01-10T02:33:32;11.73;;;9.87;;
2494;SDS011;1258;48.336;14.322;2024-01-10T02:35:59;12.37;;;10.57;;
2494;SDS011;1258;48.336;14.322;2024-01-10T02:38:26;11.90;;;10.13;;
2494;SDS011;1258;48.336;14.322;2024-01-10T02:40:53;12.50;;;10.10;;
2494;SDS011;1258;48.336;14.322;2024-01-10T02:43:22;10.43;;;9.33;;
2494;SDS011;1258;48.336;14.322;2024-01-10T02:45:49;10.93;;;9.90;;
2494;SDS011;1258;48.336;14.322;2024-01-10T02:48:16;12.23;;;10.37;;
2494;SDS011;1258;48.336;14.322;2024-01-10T02:50:43;13.60;;;10.27;;
2494;SDS011;1258;48.336;14.322;2024-01-10T02:53:10;11.33;;;10.10;;
2494;SDS011;1258;48.336;14.322;2024-01-10T02:55:37;10.40;;;9.47;;
2494;SDS011;1258;48.336;14.322;2024-01-10T02:58:04;10.43;;;9.27;;
2494;SDS011;1258;48.336;14.322;2024-01-10T03:00:32;8.77;;;8.07;;
2494;SDS011;1258;48.336;14.322;2024-01-10T03:02:59;9.37;;;8.47;;
2494;SDS011;1258;48.336;14.322;2024-01-10T03:05:26;8.90;;;7.40;;
2494;SDS011;1258;48.336;14.322;2024-01-10T03:07:53;9.70;;;8.70;;
2494;SDS011;1258;48.336;14.322;2024-01-10T03:10:20;9.80;;;7.67;;
2494;SDS011;1258;48.336;14.322;2024-01-10T03:12:46;9.70;;;8.80;;
2494;SDS011;1258;48.336;14.322;2024-01-10T03:15:13;10.00;;;9.00;;
2494;SDS011;1258;48.336;14.322;2024-01-10T03:17:42;9.70;;;8.90;;
2494;SDS011;1258;48.336;14.322;2024-01-10T03:20:09;8.93;;;8.03;;
2494;SDS011;1258;48.336;14.322;2024-01-10T03:22:36;11.20;;;8.47;;
2494;SDS011;1258;48.336;14.322;2024-01-10T03:25:03;9.20;;;8.30;;
2494;SDS011;1258;48.336;14.322;2024-01-10T03:27:30;8.30;;;7.60;;
2494;SDS011;1258;48.336;14.322;2024-01-10T03:29:57;7.80;;;7.10;;
2494;SDS011;1258;48.336;14.322;2024-01-10T03:32:24;9.10;;;7.20;;
2494;SDS011;1258;48.336;14.322;2024-01-10T03:34:53;8.37;;;7.57;;
2494;SDS011;1258;48.336;14.322;2024-01-10T03:37:19;10.17;;;9.07;;
2494;SDS011;1258;48.336;14.322;2024-01-10T03:39:46;10.50;;;8.70;;
2494;SDS011;1258;48.336;14.322;2024-01-10T03:42:13;9.20;;;8.30;;
2494;SDS011;1258;48.336;14.322;2024-01-10T03:44:41;8.07;;;7.27;;
2494;SDS011;1258;48.336;14.322;2024-01-10T03:47:08;7.47;;;6.77;;
2494;SDS011;1258;48.336;14.322;2024-01-10T03:49:34;8.77;;;7.97;;
2494;SDS011;1258;48.336;14.322;2024-01-10T03:52:02;7.50;;;6.90;;
2494;SDS011;1258;48.336;14.322;2024-01-10T03:54:29;7.87;;;7.17;;
2494;SDS011;1258;48.336;14.322;2024-01-10T03:56:56;8.83;;;8.03;;
2494;SDS011;1258;48.336;14.322;2024-01-10T03:59:23;9.87;;;8.87;;
2494;SDS011;1258;48.336;14.322;2024-01-10T04:01:50;10.07;;;9.07;;
2494;SDS011;1258;48.336;14.322;2024-01-10T04:04:17;10.33;;;9.23;;
2494;SDS011;1258;48.336;14.322;2024-01-10T04:06:44;11.77;;;10.37;;
2494;SDS011;1258;48.336;14.322;2024-01-10T04:09:12;9.50;;;8.50;;
2494;SDS011;1258;48.336;14.322;2024-01-10T04:11:39;9.67;;;8.77;;
2494;SDS011;1258;48.336;14.322;2024-01-10T04:14:06;8.43;;;7.60;;
2494;SDS011;1258;48.336;14.322;2024-01-10T04:16:33;7.83;;;7.13;;
2494;SDS011;1258;48.336;14.322;2024-01-10T04:19:00;7.93;;;7.13;;
2494;SDS011;1258;48.336;14.322;2024-01-10T04:21:27;9.00;;;8.10;;
2494;SDS011;1258;48.336;14.322;2024-01-10T04:23:53;9.90;;;8.60;;
2494;SDS011;1258;48.336;14.322;2024-01-10T04:26:22;10.00;;;8.40;;
2494;SDS011;1258;48.336;14.322;2024-01-10T04:28:49;10.30;;;8.57;;
2494;SDS011;1258;48.336;14.322;2024-01-10T04:31:15;9.30;;;8.40;;
2494;SDS011;1258;48.336;14.322;2024-01-10T04:33:42;9.33;;;8.13;;
2494;SDS011;1258;48.336;14.322;2024-01-10T04:36:09;8.80;;;7.90;;
2494;SDS011;1258;48.336;14.322;2024-01-10T04:38:36;7.23;;;6.60;;
2494;SDS011;1258;48.336;14.322;2024-01-10T04:41:03;8.40;;;7.60;;
2494;SDS011;1258;48.336;14.322;2024-01-10T04:43:31;7.50;;;6.80;;
2494;SDS011;1258;48.336;14.322;2024-01-10T04:45:58;7.43;;;6.73;;
2494;SDS011;1258;48.336;14.322;2024-01-10T04:48:25;6.37;;;5.77;;
2494;SDS011;1258;48.336;14.322;2024-01-10T04:50:52;8.43;;;7.63;;
2494;SDS011;1258;48.336;14.322;2024-01-10T04:53:19;8.93;;;8.10;;
2494;SDS011;1258;48.336;14.322;2024-01-10T04:55:46;11.53;;;10.33;;
2494;SDS011;1258;48.336;14.322;2024-01-10T04:58:13;15.60;;;12.03;;
2494;SDS011;1258;48.336;14.322;2024-01-10T05:00:41;12.00;;;10.80;;
2494;SDS011;1258;48.336;14.322;2024-01-10T05:03:08;11.43;;;10.20;;
2494;SDS011;1258;48.336;14.322;2024-01-10T05:05:34;10.27;;;9.27;;
2494;SDS011;1258;48.336;14.322;2024-01-10T05:08:01;10.40;;;9.07;;
2494;SDS011;1258;48.336;14.322;2024-01-10T05:10:28;11.33;;;9.77;;
2494;SDS011;1258;48.336;14.322;2024-01-10T05:12:56;12.30;;;11.07;;
2494;SDS011;1258;48.336;14.322;2024-01-10T05:15:22;10.70;;;9.60;;
2494;SDS011;1258;48.336;14.322;2024-01-10T05:17:51;10.93;;;9.80;;
2494;SDS011;1258;48.336;14.322;2024-01-10T05:20:18;9.03;;;8.23;;
2494;SDS011;1258;48.336;14.322;2024-01-10T05:22:44;8.30;;;7.10;;
2494;SDS011;1258;48.336;14.322;2024-01-10T05:25:11;7.67;;;6.87;;
2494;SDS011;1258;48.336;14.322;2024-01-10T05:27:38;8.00;;;7.20;;
2494;SDS011;1258;48.336;14.322;2024-01-10T05:30:06;10.30;;;9.30;;
2494;SDS011;1258;48.336;14.322;2024-01-10T05:32:33;8.93;;;8.10;;
2494;SDS011;1258;48.336;14.322;2024-01-10T05:35:03;12.40;;;10.83;;
2494;SDS011;1258;48.336;14.322;2024-01-10T05:37:31;12.30;;;10.90;;
2494;SDS011;1258;48.336;14.322;2024-01-10T05:39:58;11.17;;;9.90;;
2494;SDS011;1258;48.336;14.322;2024-01-10T05:42:25;11.67;;;10.43;;
2494;SDS011;1258;48.336;14.322;2024-01-10T05:44:52;12.17;;;10.97;;
2494;SDS011;1258;48.336;14.322;2024-01-10T05:47:19;14.27;;;12.23;;
2494;SDS011;1258;48.336;14.322;2024-01-10T05:49:46;13.30;;;12.00;;
2494;SDS011;1258;48.336;14.322;2024-01-10T05:52:14;11.63;;;10.43;;
2494;SDS011;1258;48.336;14.322;2024-01-10T05:54:41;11.60;;;9.83;;
2494;SDS011;1258;48.336;14.322;2024-01-10T05:57:08;10.90;;;9.80;;
2494;SDS011;1258;48.336;14.322;2024-01-10T05:59:35;8.00;;;7.30;;
2494;SDS011;1258;48.336;14.322;2024-01-10T06:02:02;9.33;;;8.43;;
2494;SDS011;1258;48.336;14.322;2024-01-10T06:04:30;8.53;;;7.50;;
2494;SDS011;1258;48.336;14.322;2024-01-10T06:06:57;9.90;;;8.90;;
2494;SDS011;1258;48.336;14.322;2024-01-10T06:09:25;12.37;;;10.90;;
2494;SDS011;1258;48.336;14.322;2024-01-10T06:11:52;12.23;;;10.73;;
2494;SDS011;1258;48.336;14.322;2024-01-10T06:14:19;12.17;;;10.97;;
2494;SDS011;1258;48.336;14.322;2024-01-10T06:16:46;11.30;;;10.20;;
2494;SDS011;1258;48.336;14.322;2024-01-10T06:19:13;10.47;;;9.40;;
2494;SDS011;1258;48.336;14.322;2024-01-10T06:21:40;11.27;;;10.13;;
2494;SDS011;1258;48.336;14.322;2024-01-10T06:24:07;11.37;;;10.20;;
2494;SDS011;1258;48.336;14.322;2024-01-10T06:26:35;9.33;;;7.80;;
2494;SDS011;1258;48.336;14.322;2024-01-10T06:29:02;10.47;;;8.90;;
2494;SDS011;1258;48.336;14.322;2024-01-10T06:31:29;11.00;;;8.63;;
2494;SDS011;1258;48.336;14.322;2024-01-10T06:33:56;13.60;;;11.80;;
2494;SDS011;1258;48.336;14.322;2024-01-10T06:36:23;12.50;;;11.13;;
2494;SDS011;1258;48.336;14.322;2024-01-10T06:38:50;11.83;;;9.70;;
2494;SDS011;1258;48.336;14.322;2024-01-10T06:41:17;12.83;;;11.53;;
2494;SDS011;1258;48.336;14.322;2024-01-10T06:43:50;11.07;;;9.93;;
2494;SDS011;1258;48.336;14.322;2024-01-10T06:46:19;12.70;;;10.63;;
2494;SDS011;1258;48.336;14.322;2024-01-10T06:48:46;11.43;;;10.30;;
2494;SDS011;1258;48.336;14.322;2024-01-10T06:51:15;11.47;;;10.37;;
2494;SDS011;1258;48.336;14.322;2024-01-10T06:53:42;12.07;;;10.80;;
2494;SDS011;1258;48.336;14.322;2024-01-10T06:56:09;12.10;;;10.33;;
2494;SDS011;1258;48.336;14.322;2024-01-10T06:58:36;10.97;;;9.63;;
2494;SDS011;1258;48.336;14.322;2024-01-10T07:01:05;13.03;;;11.63;;
2494;SDS011;1258;48.336;14.322;2024-01-10T07:03:38;11.80;;;10.40;;
2494;SDS011;1258;48.336;14.322;2024-01-10T07:06:05;12.30;;;10.60;;
2494;SDS011;1258;48.336;14.322;2024-01-10T07:08:32;14.00;;;10.47;;
2494;SDS011;1258;48.336;14.322;2024-01-10T07:10:59;14.70;;;12.60;;
2494;SDS011;1258;48.336;14.322;2024-01-10T07:13:26;18.73;;;14.23;;
2494;SDS011;1258;48.336;14.322;2024-01-10T07:15:53;15.90;;;12.73;;
2494;SDS011;1258;48.336;14.322;2024-01-10T07:18:21;12.10;;;10.90;;
2494;SDS011;1258;48.336;14.322;2024-01-10T07:20:48;11.17;;;10.00;;
2494;SDS011;1258;48.336;14.322;2024-01-10T07:23:15;12.00;;;10.80;;
2494;SDS011;1258;48.336;14.322;2024-01-10T07:25:42;10.40;;;9.40;;
2494;SDS011;1258;48.336;14.322;2024-01-10T07:28:09;10.40;;;8.50;;
2494;SDS011;1258;48.336;14.322;2024-01-10T07:30:36;8.77;;;7.97;;
2494;SDS011;1258;48.336;14.322;2024-01-10T07:33:03;10.30;;;9.30;;
2494;SDS011;1258;48.336;14.322;2024-01-10T07:35:31;11.00;;;8.17;;
2494;SDS011;1258;48.336;14.322;2024-01-10T07:37:58;9.10;;;8.30;;
2494;SDS011;1258;48.336;14.322;2024-01-10T07:40:25;8.67;;;7.83;;
2494;SDS011;1258;48.336;14.322;2024-01-10T07:42:52;8.00;;;7.30;;
2494;SDS011;1258;48.336;14.322;2024-01-10T07:45:19;8.40;;;7.60;;
2494;SDS011;1258;48.336;14.322;2024-01-10T07:47:46;10.80;;;9.63;;
2494;SDS011;1258;48.336;14.322;2024-01-10T07:50:13;10.73;;;9.83;;
2494;SDS011;1258;48.336;14.322;2024-01-10T07:52:41;9.20;;;8.40;;
2494;SDS011;1258;48.336;14.322;2024-01-10T07:55:09;8.77;;;7.87;;
2494;SDS011;1258;48.336;14.322;2024-01-10T07:57:36;8.20;;;7.40;;
2494;SDS011;1258;48.336;14.322;2024-01-10T08:00:03;9.53;;;8.13;;
2494;SDS011;1258;48.336;14.322;2024-01-10T08:02:34;10.50;;;9.40;;
2494;SDS011;1258;48.336;14.322;2024-01-10T08:05:01;10.70;;;9.60;;
2494;SDS011;1258;48.336;14.322;2024-01-10T08:07:30;12.90;;;11.60;;
2494;SDS011;1258;48.336;14.322;2024-01-10T08:09:59;14.63;;;12.73;;
2494;SDS011;1258;48.336;14.322;2024-01-10T08:12:26;13.30;;;11.67;;
2494;SDS011;1258;48.336;14.322;2024-01-10T08:14:53;14.63;;;13.07;;
2494;SDS011;1258;48.336;14.322;2024-01-10T08:17:20;17.17;;;14.90;;
2494;SDS011;1258;48.336;14.322;2024-01-10T08:19:48;18.50;;;15.10;;
2494;SDS011;1258;48.336;14.322;2024-01-10T08:22:15;16.10;;;14.23;;
2494;SDS011;1258;48.336;14.322;2024-01-10T08:24:42;13.30;;;12.00;;
2494;SDS011;1258;48.336;14.322;2024-01-10T08:27:11;17.13;;;13.53;;
2494;SDS011;1258;48.336;14.322;2024-01-10T08:29:38;12.90;;;11.60;;
2494;SDS011;1258;48.336;14.322;2024-01-10T08:32:05;16.47;;;13.80;;
2494;SDS011;1258;48.336;14.322;2024-01-10T08:34:32;15.03;;;13.53;;
2494;SDS011;1258;48.336;14.322;2024-01-10T08:36:59;16.90;;;15.10;;
2494;SDS011;1258;48.336;14.322;2024-01-10T08:39:26;20.10;;;15.40;;
2494;SDS011;1258;48.336;14.322;2024-01-10T08:41:55;17.00;;;14.07;;
2494;SDS011;1258;48.336;14.322;2024-01-10T08:44:23;13.70;;;12.13;;
2494;SDS011;1258;48.336;14.322;2024-01-10T08:46:50;15.40;;;13.37;;
2494;SDS011;1258;48.336;14.322;2024-01-10T08:49:18;14.77;;;13.17;;
2494;SDS011;1258;48.336;14.322;2024-01-10T08:51:45;12.90;;;11.60;;
2494;SDS011;1258;48.336;14.322;2024-01-10T08:54:12;17.53;;;14.67;;
2494;SDS011;1258;48.336;14.322;2024-01-10T08:56:42;15.30;;;13.70;;
2494;SDS011;1258;48.336;14.322;2024-01-10T08:59:10;18.93;;;15.97;;
2494;SDS011;1258;48.336;14.322;2024-01-10T09:01:38;20.97;;;17.30;;
2494;SDS011;1258;48.336;14.322;2024-01-10T09:04:05;19.00;;;16.27;;
2494;SDS011;1258;48.336;14.322;2024-01-10T09:06:32;19.37;;;15.47;;
2494;SDS011;1258;48.336;14.322;2024-01-10T09:09:00;20.97;;;17.63;;
2494;SDS011;1258;48.336;14.322;2024-01-10T09:11:28;16.60;;;13.90;;
2494;SDS011;1258;48.336;14.322;2024-01-10T09:13:55;16.77;;;14.07;;
2494;SDS011;1258;48.336;14.322;2024-01-10T09:16:22;17.87;;;14.23;;
2494;SDS011;1258;48.336;14.322;2024-01-10T09:18:51;13.57;;;12.17;;
2494;SDS011;1258;48.336;14.322;2024-01-10T09:21:21;17.20;;;14.60;;
2494;SDS011;1258;48.336;14.322;2024-01-10T09:23:48;15.83;;;12.87;;
2494;SDS011;1258;48.336;14.322;2024-01-10T09:26:16;19.53;;;15.63;;
2494;SDS011;1258;48.336;14.322;2024-01-10T09:28:43;19.40;;;16.60;;
2494;SDS011;1258;48.336;14.322;2024-01-10T09:31:10;19.00;;;15.10;;
2494;SDS011;1258;48.336;14.322;2024-01-10T09:33:37;16.17;;;14.47;;
2494;SDS011;1258;48.336;14.322;2024-01-10T09:36:06;17.73;;;15.53;;
2494;SDS011;1258;48.336;14.322;2024-01-10T09:38:34;20.50;;;17.40;;
2494;SDS011;1258;48.336;14.322;2024-01-10T09:41:02;20.17;;;16.67;;
2494;SDS011;1258;48.336;14.322;2024-01-10T09:43:30;22.30;;;18.23;;
2494;SDS011;1258;48.336;14.322;2024-01-10T09:45:58;19.60;;;16.47;;
2494;SDS011;1258;48.336;14.322;2024-01-10T09:48:27;19.00;;;16.33;;
2494;SDS011;1258;48.336;14.322;2024-01-10T09:50:55;15.90;;;13.33;;
2494;SDS011;1258;48.336;14.322;2024-01-10T09:53:24;13.20;;;11.60;;
2494;SDS011;1258;48.336;14.322;2024-01-10T09:55:52;12.23;;;10.87;;
2494;SDS011;1258;48.336;14.322;2024-01-10T09:58:22;11.93;;;10.77;;
2494;SDS011;1258;48.336;14.322;2024-01-10T10:00:50;13.67;;;12.23;;
2494;SDS011;1258;48.336;14.322;2024-01-10T10:03:17;12.67;;;11.40;;
2494;SDS011;1258;48.336;14.322;2024-01-10T10:05:44;10.03;;;9.03;;
2494;SDS011;1258;48.336;14.322;2024-01-10T10:08:12;11.87;;;10.67;;
2494;SDS011;1258;48.336;14.322;2024-01-10T10:10:46;12.37;;;11.07;;
2494;SDS011;1258;48.336;14.322;2024-01-10T10:13:23;14.30;;;12.47;;
2494;SDS011;1258;48.336;14.322;2024-01-10T10:15:57;15.07;;;12.30;;
2494;SDS011;1258;48.336;14.322;2024-01-10T10:18:25;14.60;;;13.03;;
2494;SDS011;1258;48.336;14.322;2024-01-10T10:21:05;16.13;;;13.57;;
2494;SDS011;1258;48.336;14.322;2024-01-10T10:23:33;16.20;;;14.50;;
2494;SDS011;1258;48.336;14.322;2024-01-10T10:26:03;15.03;;;13.37;;
2494;SDS011;1258;48.336;14.322;2024-01-10T10:28:39;14.93;;;13.43;;
2494;SDS011;1258;48.336;14.322;2024-01-10T10:31:06;14.70;;;12.53;;
2494;SDS011;1258;48.336;14.322;2024-01-10T10:33:34;16.20;;;14.50;;
2494;SDS011;1258;48.336;14.322;2024-01-10T10:36:01;15.27;;;13.70;;
2494;SDS011;1258;48.336;14.322;2024-01-10T10:38:28;15.23;;;11.80;;
2494;SDS011;1258;48.336;14.322;2024-01-10T10:40:55;11.87;;;10.67;;
2494;SDS011;1258;48.336;14.322;2024-01-10T10:43:26;11.00;;;9.90;;
2494;SDS011;1258;48.336;14.322;2024-01-10T10:45:54;9.53;;;8.63;;
2494;SDS011;1258;48.336;14.322;2024-01-10T10:48:22;9.90;;;8.90;;
2494;SDS011;1258;48.336;14.322;2024-01-10T10:50:50;9.67;;;8.77;;
2494;SDS011;1258;48.336;14.322;2024-01-10T10:53:25;9.20;;;8.07;;
2494;SDS011;1258;48.336;14.322;2024-01-10T10:55:55;9.03;;;8.13;;
2494;SDS011;1258;48.336;14.322;2024-01-10T10:58:26;7.33;;;6.63;;
2494;SDS011;1258;48.336;14.322;2024-01-10T11:00:54;8.07;;;7.27;;
2494;SDS011;1258;48.336;14.322;2024-01-10T11:03:23;6.87;;;6.27;;
2494;SDS011;1258;48.336;14.322;2024-01-10T11:05:51;7.47;;;6.77;;
2494;SDS011;1258;48.336;14.322;2024-01-10T11:08:19;12.70;;;11.40;;
2494;SDS011;1258;48.336;14.322;2024-01-10T11:10:48;15.23;;;13.50;;
2494;SDS011;1258;48.336;14.322;2024-01-10T11:13:32;14.00;;;12.53;;
2494;SDS011;1258;48.336;14.322;2024-01-10T11:16:32;13.93;;;11.77;;
2494;SDS011;1258;48.336;14.322;2024-01-10T11:19:24;17.90;;;16.00;;
2494;SDS011;1258;48.336;14.322;2024-01-10T11:22:18;14.77;;;13.23;;
2494;SDS011;1258;48.336;14.322;2024-01-10T11:25:00;17.37;;;15.57;;
2494;SDS011;1258;48.336;14.322;2024-01-10T11:27:27;16.67;;;14.97;;
2494;SDS011;1258;48.336;14.322;2024-01-10T11:29:56;18.10;;;15.67;;
2494;SDS011;1258;48.336;14.322;2024-01-10T11:32:24;18.80;;;16.80;;
2494;SDS011;1258;48.336;14.322;2024-01-10T11:34:54;19.40;;;16.43;;
2494;SDS011;1258;48.336;14.322;2024-01-10T11:37:21;19.07;;;16.20;;
2494;SDS011;1258;48.336;14.322;2024-01-10T11:39:50;17.13;;;14.17;;
2494;SDS011;1258;48.336;14.322;2024-01-10T11:42:21;16.13;;;14.47;;
2494;SDS011;1258;48.336;14.322;2024-01-10T11:44:49;20.07;;;16.77;;
2494;SDS011;1258;48.336;14.322;2024-01-10T11:47:18;16.10;;;14.37;;
2494;SDS011;1258;48.336;14.322;2024-01-10T11:49:56;15.63;;;13.70;;
2494;SDS011;1258;48.336;14.322;2024-01-10T11:52:31;17.43;;;13.97;;
2494;SDS011;1258;48.336;14.322;2024-01-10T11:54:59;21.30;;;17.83;;
2494;SDS011;1258;48.336;14.322;2024-01-10T11:57:27;20.37;;;15.83;;
2494;SDS011;1258;48.336;14.322;2024-01-10T11:59:57;19.10;;;17.00;;
2494;SDS011;1258;48.336;14.322;2024-01-10T12:02:26;13.37;;;11.83;;
2494;SDS011;1258;48.336;14.322;2024-01-10T12:04:53;16.97;;;15.17;;
2494;SDS011;1258;48.336;14.322;2024-01-10T12:07:21;20.17;;;17.33;;
2494;SDS011;1258;48.336;14.322;2024-01-10T12:09:48;21.50;;;17.93;;
2494;SDS011;1258;48.336;14.322;2024-01-10T12:12:16;18.50;;;16.40;;
2494;SDS011;1258;48.336;14.322;2024-01-10T12:14:43;16.20;;;14.30;;
2494;SDS011;1258;48.336;14.322;2024-01-10T12:17:11;15.67;;;13.97;;
2494;SDS011;1258;48.336;14.322;2024-01-10T12:19:39;23.83;;;19.20;;
2494;SDS011;1258;48.336;14.322;2024-01-10T12:22:09;22.20;;;18.70;;
2494;SDS011;1258;48.336;14.322;2024-01-10T12:24:42;17.27;;;14.93;;
2494;SDS011;1258;48.336;14.322;2024-01-10T12:27:11;17.60;;;15.07;;
2494;SDS011;1258;48.336;14.322;2024-01-10T12:29:38;20.60;;;17.97;;
2494;SDS011;1258;48.336;14.322;2024-01-10T12:32:05;15.57;;;13.90;;
2494;SDS011;1258;48.336;14.322;2024-01-10T12:34:33;16.27;;;13.83;;
2494;SDS011;1258;48.336;14.322;2024-01-10T12:37:05;21.50;;;16.40;;
2494;SDS011;1258;48.336;14.322;2024-01-10T12:39:32;18.03;;;16.23;;
2494;SDS011;1258;48.336;14.322;2024-01-10T12:42:00;16.30;;;13.47;;
2494;SDS011;1258;48.336;14.322;2024-01-10T12:44:28;10.27;;;9.17;;
2494;SDS011;1258;48.336;14.322;2024-01-10T12:46:56;10.50;;;9.40;;
2494;SDS011;1258;48.336;14.322;2024-01-10T12:49:25;8.30;;;7.40;;
2494;SDS011;1258;48.336;14.322;2024-01-10T12:51:51;10.47;;;8.93;;
2494;SDS011;1258;48.336;14.322;2024-01-10T12:54:20;8.10;;;7.30;;
2494;SDS011;1258;48.336;14.322;2024-01-10T12:56:47;9.30;;;7.40;;
2494;SDS011;1258;48.336;14.322;2024-01-10T12:59:14;7.03;;;6.33;;
2494;SDS011;1258;48.336;14.322;2024-01-10T13:01:41;7.27;;;6.37;;
2494;SDS011;1258;48.336;14.322;2024-01-10T13:04:08;9.03;;;7.83;;
2494;SDS011;1258;48.336;14.322;2024-01-10T13:06:36;9.17;;;8.27;;
2494;SDS011;1258;48.336;14.322;2024-01-10T13:09:04;7.27;;;6.40;;
2494;SDS011;1258;48.336;14.322;2024-01-10T13:11:33;7.20;;;6.60;;
2494;SDS011;1258;48.336;14.322;2024-01-10T13:14:00;7.80;;;7.00;;
2494;SDS011;1258;48.336;14.322;2024-01-10T13:16:27;8.03;;;6.80;;
2494;SDS011;1258;48.336;14.322;2024-01-10T13:18:53;7.60;;;6.80;;
2494;SDS011;1258;48.336;14.322;2024-01-10T13:21:22;8.60;;;7.10;;
2494;SDS011;1258;48.336;14.322;2024-01-10T13:23:49;10.37;;;9.33;;
2494;SDS011;1258;48.336;14.322;2024-01-10T13:26:16;9.93;;;8.93;;
2494;SDS011;1258;48.336;14.322;2024-01-10T13:28:44;8.10;;;7.30;;
2494;SDS011;1258;48.336;14.322;2024-01-10T13:31:11;7.70;;;6.90;;
2494;SDS011;1258;48.336;14.322;2024-01-10T13:33:38;8.37;;;7.57;;
2494;SDS011;1258;48.336;14.322;2024-01-10T13:36:05;8.10;;;7.30;;
2494;SDS011;1258;48.336;14.322;2024-01-10T13:38:32;7.20;;;6.50;;
2494;SDS011;1258;48.336;14.322;2024-01-10T13:41:00;8.60;;;7.70;;
2494;SDS011;1258;48.336;14.322;2024-01-10T13:43:27;8.30;;;7.50;;
2494;SDS011;1258;48.336;14.322;2024-01-10T13:45:55;8.50;;;7.70;;
2494;SDS011;1258;48.336;14.322;2024-01-10T13:48:22;8.90;;;7.47;;
2494;SDS011;1258;48.336;14.322;2024-01-10T13:50:49;7.73;;;6.97;;
2494;SDS011;1258;48.336;14.322;2024-01-10T13:53:16;7.43;;;6.40;;
2494;SDS011;1258;48.336;14.322;2024-01-10T13:55:43;7.70;;;6.90;;
2494;SDS011;1258;48.336;14.322;2024-01-10T13:58:11;8.13;;;7.20;;
2494;SDS011;1258;48.336;14.322;2024-01-10T14:00:38;7.27;;;6.53;;
2494;SDS011;1258;48.336;14.322;2024-01-10T14:03:06;7.30;;;6.40;;
2494;SDS011;1258;48.336;14.322;2024-01-10T14:05:33;7.17;;;6.47;;
2494;SDS011;1258;48.336;14.322;2024-01-10T14:08:00;7.93;;;7.13;;
2494;SDS011;1258;48.336;14.322;2024-01-10T14:10:27;6.93;;;6.20;;
2494;SDS011;1258;48.336;14.322;2024-01-10T14:12:54;7.63;;;6.83;;
2494;SDS011;1258;48.336;14.322;2024-01-10T14:15:21;8.77;;;7.87;;
2494;SDS011;1258;48.336;14.322;2024-01-10T14:17:48;9.77;;;8.23;;
2494;SDS011;1258;48.336;14.322;2024-01-10T14:20:17;7.90;;;7.20;;
2494;SDS011;1258;48.336;14.322;2024-01-10T14:22:46;9.43;;;8.47;;
2494;SDS011;1258;48.336;14.322;2024-01-10T14:25:15;9.27;;;8.37;;
2494;SDS011;1258;48.336;14.322;2024-01-10T14:27:42;11.23;;;10.10;;
2494;SDS011;1258;48.336;14.322;2024-01-10T14:30:09;10.57;;;8.67;;
2494;SDS011;1258;48.336;14.322;2024-01-10T14:32:36;7.57;;;6.87;;
2494;SDS011;1258;48.336;14.322;2024-01-10T14:35:04;8.90;;;8.00;;
2494;SDS011;1258;48.336;14.322;2024-01-10T14:37:33;8.37;;;7.57;;
2494;SDS011;1258;48.336;14.322;2024-01-10T14:40:01;10.10;;;8.57;;
2494;SDS011;1258;48.336;14.322;2024-01-10T14:42:29;9.80;;;8.80;;
2494;SDS011;1258;48.336;14.322;2024-01-10T14:44:57;9.53;;;8.63;;
2494;SDS011;1258;48.336;14.322;2024-01-10T14:47:25;8.37;;;7.50;;
2494;SDS011;1258;48.336;14.322;2024-01-10T14:49:53;7.90;;;7.10;;
2494;SDS011;1258;48.336;14.322;2024-01-10T14:52:20;7.77;;;7.03;;